Time;durP1;ratioP1;P1;durP2;ratioP2;P2;SDS_P1;SDS_P2;PMS_P1;PMS_P2;Temp;Humidity;BMP_temperature;BMP_pressure;BME280_temperature;BME280_humidity;BME280_pressure;Samples;Min_cycle;Max_cycle;Signal;HPM_P1;HPM_P2
2022/01/23 00:01:13;;;;;;;5.88;2.80;;;5.80;99.90;;;;;;5128150;27;20035;-81
2022/01/23 00:03:44;;;;;;;6.10;2.90;;;6.00;99.90;;;;;;5124631;27;20039;-81
2022/01/23 00:06:10;;;;;;;7.40;2.60;;;5.80;99.90;;;;;;5131491;27;20039;-81
2022/01/23 00:08:36;;;;;;;8.88;3.15;;;5.80;99.90;;;;;;5092940;27;20080;-81
2022/01/23 00:11:02;;;;;;;6.20;2.90;;;5.80;99.90;;;;;;5117390;27;20050;-81
2022/01/23 00:17:16;;;;;;;8.38;2.78;;;5.70;99.90;;;;;;5125765;27;20046;-81
2022/01/23 00:18:57;;;;;;;8.00;2.58;;;5.70;99.90;;;;;;5125288;27;20051;-81
2022/01/23 00:21:23;;;;;;;6.77;2.50;;;6.10;99.90;;;;;;5130736;27;20030;-81
2022/01/23 00:31:43;;;;;;;8.00;2.60;;;5.80;99.90;;;;;;5109155;27;20043;-81
2022/01/23 00:34:11;;;;;;;6.20;2.70;;;5.70;99.90;;;;;;5113627;27;20041;-81
2022/01/23 00:36:36;;;;;;;5.10;2.60;;;5.80;99.90;;;;;;5122688;27;20035;-80
2022/01/23 00:39:03;;;;;;;6.00;2.60;;;5.70;99.90;;;;;;5121255;27;20042;-81
2022/01/23 00:41:29;;;;;;;7.80;2.78;;;5.80;99.90;;;;;;5127085;27;20028;-80
2022/01/23 00:43:55;;;;;;;7.60;3.47;;;5.70;99.90;;;;;;5124954;27;20135;-81
2022/01/23 00:46:29;;;;;;;5.10;2.70;;;5.80;99.90;;;;;;5123547;27;20088;-81
2022/01/23 00:51:23;;;;;;;7.63;3.30;;;5.70;99.90;;;;;;5133161;27;20053;-81
2022/01/23 00:53:49;;;;;;;9.05;3.30;;;5.90;99.90;;;;;;5104741;27;20043;-81
2022/01/23 00:56:15;;;;;;;7.18;3.10;;;5.80;99.90;;;;;;5130595;27;20514;-81
2022/01/23 00:58:41;;;;;;;11.57;3.30;;;6.20;99.90;;;;;;5133315;27;20038;-81
2022/01/23 01:01:07;;;;;;;7.20;3.38;;;5.80;99.90;;;;;;5119644;27;20114;-81
2022/01/23 01:03:32;;;;;;;8.30;3.45;;;5.70;99.90;;;;;;5108227;27;20035;-81
2022/01/23 01:05:59;;;;;;;9.32;3.58;;;5.70;99.90;;;;;;5114712;27;20042;-81
2022/01/23 01:08:25;;;;;;;6.97;3.70;;;5.70;99.90;;;;;;5128460;27;20042;-81
2022/01/23 01:11:16;;;;;;;11.80;4.03;;;5.90;99.90;;;;;;5127070;27;20034;-81
2022/01/23 01:35:18;;;;;;;10.20;4.38;;;5.70;99.90;;;;;;5118925;27;20062;-81
2022/01/23 01:37:43;;;;;;;6.95;4.20;;;5.70;99.90;;;;;;5125573;27;20070;-81
2022/01/23 01:40:09;;;;;;;6.88;3.55;;;5.90;99.90;;;;;;5126471;27;20078;-81
2022/01/23 01:42:35;;;;;;;7.80;3.90;;;5.70;99.90;;;;;;5131688;27;20051;-82
2022/01/23 01:45:01;;;;;;;9.43;3.97;;;5.70;99.90;;;;;;5104422;27;20096;-81
2022/01/23 01:47:27;;;;;;;10.45;3.92;;;5.70;99.90;;;;;;5093083;27;20407;-81
2022/01/23 01:49:52;;;;;;;10.65;4.28;;;6.00;99.90;;;;;;5124099;27;20402;-81
2022/01/23 01:52:18;;;;;;;12.07;4.18;;;5.70;99.90;;;;;;5104837;27;20030;-81
2022/01/23 01:54:44;;;;;;;10.52;4.65;;;5.70;99.90;;;;;;5150892;27;20038;-81
2022/01/23 01:57:11;;;;;;;10.93;4.20;;;5.70;99.90;;;;;;5124327;27;20043;-81
2022/01/23 02:10:25;;;;;;;13.60;4.93;;;5.70;99.90;;;;;;5120072;27;20126;-82
2022/01/23 02:50:57;;;;;;;15.25;5.20;;;5.70;99.90;;;;;;5109792;28;20046;-81
2022/01/23 02:53:36;;;;;;;11.45;5.13;;;5.70;99.90;;;;;;5109166;28;20410;-82
2022/01/23 02:56:06;;;;;;;9.60;4.88;;;5.70;99.90;;;;;;5092507;28;20047;-81
2022/01/23 02:58:47;;;;;;;9.13;4.47;;;5.70;99.90;;;;;;5107392;28;20043;-82
2022/01/23 03:01:17;;;;;;;12.70;4.28;;;5.70;99.90;;;;;;5094929;28;20067;-82
2022/01/23 03:03:46;;;;;;;11.93;4.63;;;5.80;99.90;;;;;;5107799;28;20735;-82
2022/01/23 03:11:55;;;;;;;12.15;5.30;;;5.70;99.90;;;;;;5109801;28;20100;-82
2022/01/23 03:34:50;;;;;;;13.45;4.97;;;5.80;99.90;;;;;;5111570;28;20041;-82
2022/01/23 03:37:16;;;;;;;11.25;4.88;;;5.80;99.90;;;;;;5112701;28;20460;-81
2022/01/23 03:39:41;;;;;;;11.52;4.07;;;5.70;99.90;;;;;;5112595;28;20046;-82
2022/01/23 03:42:08;;;;;;;11.18;4.80;;;5.70;99.90;;;;;;5095319;28;20036;-82
2022/01/23 03:44:38;;;;;;;10.50;4.80;;;5.70;99.90;;;;;;5112848;28;20051;-82
2022/01/23 03:49:39;;;;;;;10.18;4.93;;;5.60;99.90;;;;;;5097256;28;20075;-82
2022/01/23 03:52:11;;;;;;;12.18;4.53;;;5.60;99.90;;;;;;5094213;28;20502;-82
2022/01/23 03:54:38;;;;;;;10.85;4.93;;;5.60;99.90;;;;;;5113156;28;20048;-82
2022/01/23 03:57:06;;;;;;;12.30;5.30;;;5.70;99.90;;;;;;5095393;28;20031;-81
2022/01/23 03:59:33;;;;;;;13.80;5.28;;;5.70;99.90;;;;;;5113207;28;20126;-81
2022/01/23 04:01:59;;;;;;;12.07;5.38;;;5.70;99.90;;;;;;5095517;28;20471;-81
2022/01/23 04:04:39;;;;;;;9.65;4.97;;;5.70;99.90;;;;;;5112044;28;20036;-81
2022/01/23 04:07:16;;;;;;;14.20;5.38;;;5.70;99.90;;;;;;5080247;28;20035;-81
2022/01/23 04:09:43;;;;;;;12.75;5.47;;;5.70;99.90;;;;;;5112386;28;20043;-82
2022/01/23 04:12:16;;;;;;;13.25;5.40;;;5.70;99.90;;;;;;5112206;28;20510;-82
2022/01/23 04:14:49;;;;;;;10.52;5.82;;;5.80;99.90;;;;;;5092587;28;20048;-81
2022/01/23 04:18:03;;;;;;;15.48;5.75;;;5.70;99.90;;;;;;5109306;28;20047;-82
2022/01/23 04:21:04;;;;;;;11.48;5.68;;;6.00;99.90;;;;;;5110630;28;20043;-81
2022/01/23 04:33:58;;;;;;;16.10;6.65;;;5.80;99.90;;;;;;5109116;28;20114;-81
2022/01/23 05:00:54;;;;;;;14.00;6.47;;;5.80;99.90;;;;;;5096940;28;20039;-82
2022/01/23 05:06:07;;;;;;;15.07;5.85;;;5.70;99.90;;;;;;5110566;28;20050;-82
2022/01/23 05:08:35;;;;;;;13.32;5.65;;;5.80;99.90;;;;;;5092733;28;20121;-81
2022/01/23 05:11:04;;;;;;;12.57;5.07;;;5.70;99.90;;;;;;5111302;28;20048;-81
2022/01/23 05:13:30;;;;;;;12.13;5.15;;;5.70;99.90;;;;;;5111299;28;20123;-82
2022/01/23 05:15:56;;;;;;;8.77;4.97;;;5.70;99.90;;;;;;5109039;28;20051;-82
2022/01/23 05:18:22;;;;;;;11.05;5.80;;;5.70;99.90;;;;;;5110825;28;20035;-82
2022/01/23 05:20:55;;;;;;;12.77;5.68;;;5.90;99.90;;;;;;5094499;28;20039;-82
2022/01/23 05:23:20;;;;;;;14.82;5.30;;;5.70;99.90;;;;;;5109099;28;20044;-82
2022/01/23 05:25:46;;;;;;;14.57;5.73;;;5.70;99.90;;;;;;5094318;28;20054;-81
2022/01/23 05:28:12;;;;;;;12.07;6.03;;;5.70;99.90;;;;;;5106176;27;20296;-82
2022/01/23 05:30:39;;;;;;;10.95;4.88;;;5.90;99.90;;;;;;5120915;27;20047;-81
2022/01/23 05:33:05;;;;;;;13.32;4.85;;;5.60;99.90;;;;;;5093916;28;20062;-82
2022/01/23 05:35:31;;;;;;;12.48;5.20;;;5.70;99.90;;;;;;5104065;27;20088;-81
2022/01/23 05:37:57;;;;;;;13.10;6.05;;;5.60;99.90;;;;;;5121004;27;20496;-81
2022/01/23 05:40:26;;;;;;;14.82;5.30;;;5.90;99.90;;;;;;5118764;27;20036;-81
2022/01/23 05:42:52;;;;;;;15.20;5.68;;;5.60;99.90;;;;;;5131480;27;20407;-82
2022/01/23 05:45:18;;;;;;;12.98;5.70;;;6.10;99.90;;;;;;5106451;27;20061;-81
2022/01/23 05:47:43;;;;;;;12.25;5.35;;;5.60;99.90;;;;;;5125622;27;20509;-81
2022/01/23 05:50:09;;;;;;;13.65;6.03;;;5.60;99.90;;;;;;5098069;28;20039;-81
2022/01/23 05:52:36;;;;;;;10.77;5.28;;;5.70;99.90;;;;;;5093964;28;20039;-81
2022/01/23 05:55:06;;;;;;;11.73;5.45;;;5.60;99.90;;;;;;5111267;27;20035;-82
2022/01/23 05:57:31;;;;;;;11.75;5.30;;;5.60;99.90;;;;;;5119484;27;20036;-82
2022/01/23 05:59:57;;;;;;;13.43;5.70;;;5.60;99.90;;;;;;5116353;27;20510;-81
2022/01/23 06:02:23;;;;;;;11.43;4.73;;;5.60;99.90;;;;;;5107690;28;20670;-82
2022/01/23 06:04:48;;;;;;;13.80;5.67;;;5.60;99.90;;;;;;5116622;28;20326;-81
2022/01/23 06:07:14;;;;;;;12.37;5.77;;;6.20;99.90;;;;;;5119629;27;20132;-81
2022/01/23 06:09:41;;;;;;;11.50;5.72;;;5.60;99.90;;;;;;5117945;28;20641;-82
2022/01/23 06:12:07;;;;;;;11.02;5.15;;;5.60;99.90;;;;;;5127007;28;20164;-82
2022/01/23 06:14:33;;;;;;;11.30;5.90;;;5.60;99.90;;;;;;5110083;28;20106;-82
2022/01/23 06:16:59;;;;;;;11.50;5.43;;;5.60;99.90;;;;;;5126108;28;20062;-82
2022/01/23 06:19:24;;;;;;;12.93;5.97;;;5.60;99.90;;;;;;5121488;28;20043;-82
2022/01/23 06:21:51;;;;;;;14.73;6.10;;;5.60;99.90;;;;;;5116989;28;20039;-81
2022/01/23 06:24:25;;;;;;;14.32;5.88;;;5.60;99.90;;;;;;5118353;28;20031;-82
2022/01/23 06:26:54;;;;;;;12.43;5.93;;;5.70;99.90;;;;;;5124363;28;20122;-81
2022/01/23 06:29:25;;;;;;;9.45;5.55;;;5.60;99.90;;;;;;5101645;28;20051;-82
2022/01/23 06:31:53;;;;;;;12.57;5.47;;;5.60;99.90;;;;;;5125800;28;20042;-82
2022/01/23 06:34:19;;;;;;;10.20;5.25;;;5.60;99.90;;;;;;5120695;28;20039;-81
2022/01/23 06:36:48;;;;;;;11.88;5.53;;;5.90;99.90;;;;;;5123020;28;20039;-82
2022/01/23 06:39:14;;;;;;;9.68;5.65;;;5.70;99.90;;;;;;5120352;28;20039;-82
2022/01/23 06:41:40;;;;;;;10.88;5.47;;;5.70;99.90;;;;;;5115663;28;20107;-82
2022/01/23 06:44:07;;;;;;;13.80;5.88;;;5.50;99.90;;;;;;5101833;28;20084;-82
2022/01/23 06:46:33;;;;;;;8.35;4.82;;;5.50;99.90;;;;;;5116474;28;20126;-82
2022/01/23 06:49:00;;;;;;;11.02;5.10;;;5.50;99.90;;;;;;5122696;27;20045;-81
2022/01/23 06:51:26;;;;;;;9.10;5.43;;;5.50;99.90;;;;;;5131698;27;20509;-82
2022/01/23 06:53:52;;;;;;;8.45;5.45;;;5.50;99.90;;;;;;5092709;27;20075;-82
2022/01/23 06:56:18;;;;;;;11.32;5.70;;;5.50;99.90;;;;;;5122705;27;20602;-81
2022/01/23 06:58:44;;;;;;;13.02;5.93;;;5.60;99.90;;;;;;5113592;27;20038;-82
2022/01/23 07:01:10;;;;;;;10.93;5.57;;;5.50;99.90;;;;;;5118595;27;20180;-82
2022/01/23 07:03:37;;;;;;;15.07;5.93;;;5.40;99.90;;;;;;5130118;27;20129;-81
2022/01/23 07:06:04;;;;;;;11.82;5.85;;;5.50;99.90;;;;;;5118124;27;20031;-82
2022/01/23 07:08:31;;;;;;;13.32;5.70;;;5.40;99.90;;;;;;5106651;27;20110;-81
2022/01/23 07:10:57;;;;;;;;;;;5.40;99.90;;;;;;5129783;27;20054;-81
2022/01/23 07:13:23;;;;;;;9.70;5.10;;;5.50;99.90;;;;;;5120776;27;19919;-82
2022/01/23 07:15:49;;;;;;;10.90;5.90;;;5.40;99.90;;;;;;5130712;27;20368;-82
2022/01/23 07:18:21;;;;;;;11.07;5.38;;;5.60;99.90;;;;;;5123553;27;20566;-81
2022/01/23 07:20:47;;;;;;;12.55;5.78;;;5.40;99.90;;;;;;5119176;27;20038;-82
2022/01/23 07:23:14;;;;;;;13.02;5.60;;;5.40;99.90;;;;;;5126747;27;20080;-82
2022/01/23 07:25:41;;;;;;;13.25;5.53;;;5.40;99.90;;;;;;5116053;27;20668;-81
2022/01/23 07:28:13;;;;;;;9.52;4.55;;;5.40;99.90;;;;;;5131669;27;20073;-81
2022/01/23 07:30:47;;;;;;;8.60;4.43;;;5.30;99.90;;;;;;5100367;28;20043;-81
2022/01/23 07:33:13;;;;;;;8.77;5.07;;;5.20;99.90;;;;;;5123417;27;20043;-81
2022/01/23 07:35:38;;;;;;;12.55;5.40;;;5.20;99.90;;;;;;5118320;27;20032;-81
2022/01/23 07:38:04;;;;;;;9.57;4.80;;;5.20;99.90;;;;;;5108154;27;20076;-82
2022/01/23 07:40:30;;;;;;;9.20;4.90;;;5.10;99.90;;;;;;5122584;27;20039;-84
2022/01/23 07:42:56;;;;;;;8.75;4.70;;;5.00;99.90;;;;;;5093674;27;20044;-77
2022/01/23 07:45:22;;;;;;;8.80;5.22;;;5.10;99.90;;;;;;5116433;27;20054;-78
2022/01/23 07:47:47;;;;;;;8.00;4.55;;;5.10;99.90;;;;;;5122475;27;20479;-79
2022/01/23 07:50:13;;;;;;;8.43;4.83;;;5.00;99.90;;;;;;5112487;27;20082;-78
2022/01/23 07:52:39;;;;;;;9.52;4.95;;;5.50;99.90;;;;;;5080200;28;20345;-78
2022/01/23 07:55:15;;;;;;;12.30;5.40;;;5.00;99.90;;;;;;5122612;27;20043;-78
2022/01/23 07:57:45;;;;;;;9.88;4.90;;;5.00;99.90;;;;;;5107211;28;20122;-79
2022/01/23 08:00:12;;;;;;;10.32;5.55;;;5.00;99.90;;;;;;5084154;27;20032;-77
2022/01/23 08:02:38;;;;;;;10.68;5.10;;;5.00;99.90;;;;;;5107247;27;20039;-78
2022/01/23 08:05:04;;;;;;;10.73;4.90;;;5.00;99.90;;;;;;5125745;27;20061;-78
2022/01/23 08:10:02;;;;;;;8.32;3.85;;;5.10;99.90;;;;;;5105252;27;20138;-78
2022/01/23 08:12:29;;;;;;;9.35;4.03;;;5.10;99.90;;;;;;5114222;27;20048;-78
2022/01/23 08:14:56;;;;;;;12.13;4.43;;;5.10;99.90;;;;;;5117160;27;20110;-78
2022/01/23 08:17:24;;;;;;;8.73;4.30;;;5.10;99.90;;;;;;5112923;27;20050;-76
2022/01/23 08:19:55;;;;;;;7.72;4.00;;;5.10;99.90;;;;;;5122094;27;20038;-76
2022/01/23 08:22:23;;;;;;;7.60;4.03;;;5.20;99.90;;;;;;5124915;27;20046;-77
2022/01/23 08:24:49;;;;;;;10.10;4.93;;;5.20;99.90;;;;;;5119117;27;20115;-78
2022/01/23 08:27:15;;;;;;;;;;;5.20;99.90;;;;;;5118675;27;20096;-76
2022/01/23 08:29:41;;;;;;;8.23;3.90;;;5.20;99.90;;;;;;5127247;27;19915;-76
2022/01/23 08:32:07;;;;;;;9.45;3.90;;;5.20;99.90;;;;;;5124973;27;20042;-76
2022/01/23 08:34:35;;;;;;;8.48;3.88;;;5.30;99.90;;;;;;5125406;27;20062;-77
2022/01/23 08:37:04;;;;;;;8.73;3.88;;;5.30;99.90;;;;;;5124605;27;20578;-77
2022/01/23 08:39:35;;;;;;;8.38;4.00;;;5.30;99.90;;;;;;5142943;27;20046;-77
2022/01/23 08:42:18;;;;;;;9.50;4.07;;;5.40;99.90;;;;;;5092543;27;20031;-76
2022/01/23 08:44:46;;;;;;;9.55;4.05;;;6.10;99.90;;;;;;5121107;27;20087;-76
2022/01/23 08:47:12;;;;;;;10.07;3.95;;;5.40;99.90;;;;;;5123422;27;20043;-77
2022/01/23 08:49:48;;;;;;;7.82;4.80;;;5.40;99.90;;;;;;5121104;27;20347;-77
2022/01/23 08:52:20;;;;;;;9.27;4.50;;;5.50;99.90;;;;;;5104467;27;20066;-77
2022/01/23 08:54:49;;;;;;;10.80;4.88;;;5.60;99.90;;;;;;5128445;27;20035;-77
2022/01/23 08:57:16;;;;;;;8.40;4.65;;;5.60;99.90;;;;;;5103781;27;20069;-77
2022/01/23 08:59:42;;;;;;;12.00;4.70;;;5.70;99.90;;;;;;5120093;27;20099;-77
2022/01/23 09:02:09;;;;;;;11.30;4.95;;;5.70;99.90;;;;;;5122787;27;20436;-76
2022/01/23 09:04:35;;;;;;;9.52;4.78;;;5.70;99.90;;;;;;5123080;27;20039;-77
2022/01/23 09:07:01;;;;;;;12.05;4.90;;;5.80;99.90;;;;;;5094614;27;20404;-77
2022/01/23 09:09:31;;;;;;;12.57;5.45;;;5.90;99.90;;;;;;5100595;27;20046;-77
2022/01/23 09:14:23;;;;;;;7.25;4.28;;;5.90;99.90;;;;;;5116848;27;20047;-77
2022/01/23 09:16:51;;;;;;;12.02;5.15;;;6.00;99.90;;;;;;5102253;27;20493;-77
2022/01/23 09:19:18;;;;;;;8.32;4.40;;;6.00;99.90;;;;;;5104882;27;20051;-77
2022/01/23 09:21:46;;;;;;;8.85;4.35;;;6.00;99.90;;;;;;5109850;27;20142;-77
2022/01/23 09:24:12;;;;;;;8.25;3.92;;;6.00;99.90;;;;;;5126145;27;20122;-77
2022/01/23 09:26:38;;;;;;;8.10;4.30;;;6.10;99.90;;;;;;5122310;27;20051;-77
2022/01/23 09:29:15;;;;;;;7.07;3.78;;;6.10;99.90;;;;;;5107074;27;20406;-78
2022/01/23 09:31:52;;;;;;;6.95;3.83;;;6.20;99.90;;;;;;5121427;27;20054;-78
2022/01/23 09:34:23;;;;;;;10.50;4.35;;;6.20;99.90;;;;;;5123681;27;20078;-77
2022/01/23 09:36:49;;;;;;;7.50;3.90;;;6.30;99.90;;;;;;5123110;27;20031;-77
2022/01/23 09:39:16;;;;;;;6.32;3.72;;;6.20;99.90;;;;;;5129064;27;20056;-79
2022/01/23 09:41:46;;;;;;;10.07;3.85;;;6.30;99.90;;;;;;5118128;27;20035;-77
2022/01/23 09:44:16;;;;;;;6.22;3.58;;;6.40;99.90;;;;;;5102937;27;20046;-77
2022/01/23 09:46:44;;;;;;;6.05;3.65;;;6.40;99.90;;;;;;5135999;27;20486;-77
2022/01/23 09:49:12;;;;;;;8.18;4.43;;;6.40;99.90;;;;;;5115098;27;20438;-77
2022/01/23 09:51:42;;;;;;;7.47;3.95;;;6.50;99.90;;;;;;5121665;27;20096;-78
2022/01/23 09:54:13;;;;;;;7.60;3.58;;;6.50;99.90;;;;;;5109097;27;20125;-77
2022/01/23 09:56:40;;;;;;;6.38;3.72;;;6.50;99.90;;;;;;5115873;27;20119;-77
2022/01/23 09:59:10;;;;;;;5.97;3.38;;;6.90;99.90;;;;;;5114604;27;20427;-77
2022/01/23 10:01:38;;;;;;;6.95;3.75;;;6.70;99.90;;;;;;5109479;27;20551;-77
2022/01/23 10:04:04;;;;;;;5.68;3.53;;;7.00;99.90;;;;;;5115084;27;20061;-77
2022/01/23 10:06:30;;;;;;;7.20;3.78;;;6.70;99.90;;;;;;5122836;27;20043;-77
2022/01/23 10:08:55;;;;;;;6.25;3.38;;;6.70;99.90;;;;;;5105453;27;20050;-77
2022/01/23 10:11:21;;;;;;;6.53;3.70;;;6.80;99.90;;;;;;5114932;27;20035;-81
2022/01/23 10:13:50;;;;;;;5.68;3.42;;;6.80;99.90;;;;;;5111024;27;20047;-78
2022/01/23 10:16:16;;;;;;;6.50;3.47;;;6.80;99.90;;;;;;5105997;27;20058;-78
2022/01/23 10:18:42;;;;;;;6.57;3.60;;;6.80;99.90;;;;;;5121151;27;20045;-78
2022/01/23 10:21:10;;;;;;;7.30;3.80;;;6.90;99.90;;;;;;5107380;27;20043;-79
2022/01/23 10:23:36;;;;;;;5.57;3.00;;;6.90;99.90;;;;;;5128671;27;20413;-78
2022/01/23 10:26:04;;;;;;;5.18;3.15;;;6.90;99.90;;;;;;5108878;27;20043;-78
2022/01/23 10:28:32;;;;;;;6.35;3.30;;;7.10;99.90;;;;;;5125951;27;20048;-78
2022/01/23 10:31:01;;;;;;;4.07;2.90;;;7.00;99.90;;;;;;5124882;27;20372;-80
2022/01/23 10:33:37;;;;;;;5.15;2.65;;;7.00;99.90;;;;;;5129155;27;20493;-79
2022/01/23 10:36:19;;;;;;;4.55;2.90;;;7.00;99.90;;;;;;5111652;27;20046;-80
2022/01/23 10:38:50;;;;;;;2.97;1.88;;;7.10;99.90;;;;;;5126293;27;20132;-78
2022/01/23 10:50:04;;;;;;;5.05;2.60;;;7.10;99.90;;;;;;5119555;27;20050;-80
2022/01/23 10:52:39;;;;;;;3.63;2.40;;;7.10;99.90;;;;;;5110403;27;20513;-79
2022/01/23 10:55:24;;;;;;;3.70;2.25;;;7.10;99.90;;;;;;5116789;27;20032;-79
2022/01/23 10:57:53;;;;;;;5.18;2.45;;;7.10;99.90;;;;;;5121976;27;20391;-78
2022/01/23 11:00:27;;;;;;;3.33;2.00;;;7.10;99.90;;;;;;5113719;28;20063;-80
2022/01/23 11:02:54;;;;;;;4.05;2.00;;;7.10;99.90;;;;;;5118556;27;20090;-79
2022/01/23 11:05:22;;;;;;;3.13;1.60;;;7.10;99.90;;;;;;5096857;27;20114;-78
2022/01/23 11:07:49;;;;;;;2.75;1.75;;;7.20;99.90;;;;;;5117432;27;20452;-78
2022/01/23 11:10:21;;;;;;;5.15;1.70;;;7.20;99.90;;;;;;5122622;27;20510;-78
2022/01/23 11:18:03;;;;;;;3.03;1.63;;;7.30;99.90;;;;;;5121306;27;20557;-79
2022/01/23 11:20:36;;;;;;;2.55;1.50;;;7.40;99.90;;;;;;5109393;27;20044;-79
2022/01/23 11:23:09;;;;;;;2.35;1.33;;;7.30;99.90;;;;;;5126315;27;20043;-79
2022/01/23 11:25:35;;;;;;;2.60;1.50;;;7.40;99.90;;;;;;5119842;27;20043;-79
2022/01/23 11:28:03;;;;;;;1.95;1.23;;;7.40;99.90;;;;;;5112304;27;20416;-80
2022/01/23 11:30:41;;;;;;;5.80;1.60;;;7.40;99.90;;;;;;5120778;27;20122;-79
2022/01/23 11:33:12;;;;;;;3.72;1.50;;;7.40;99.90;;;;;;5126635;27;20503;-79
2022/01/23 11:35:39;;;;;;;4.38;1.67;;;7.40;99.90;;;;;;5120741;27;20390;-79
2022/01/23 11:38:10;;;;;;;2.38;1.67;;;7.40;99.90;;;;;;5116221;27;20391;-80
2022/01/23 11:54:41;;;;;;;2.75;1.60;;;7.50;99.90;;;;;;5128851;27;20277;-81
2022/01/23 11:57:39;;;;;;;2.63;1.80;;;7.50;99.90;;;;;;5100436;27;20491;-81
2022/01/23 12:00:08;;;;;;;;;;;7.60;99.90;;;;;;5127293;27;20035;-81
2022/01/23 12:02:39;;;;;;;2.50;1.90;;;7.60;99.90;;;;;;5117080;27;20329;-79
2022/01/23 12:05:19;;;;;;;3.42;1.92;;;7.70;99.90;;;;;;5111091;27;20491;-80
2022/01/23 12:08:06;;;;;;;2.70;1.75;;;7.60;99.90;;;;;;5119443;27;20039;-80
2022/01/23 12:10:49;;;;;;;2.40;1.50;;;7.70;99.90;;;;;;5124435;27;20046;-80
2022/01/23 12:13:54;;;;;;;1.85;0.95;;;7.70;99.90;;;;;;5122161;27;20530;-80
2022/01/23 12:16:32;;;;;;;2.03;1.23;;;7.70;99.90;;;;;;5104447;27;20142;-80
2022/01/23 12:19:20;;;;;;;2.22;1.30;;;7.70;99.90;;;;;;5120751;27;20039;-80
2022/01/23 12:21:48;;;;;;;1.92;1.30;;;7.70;99.90;;;;;;5121717;27;20039;-80
2022/01/23 12:24:15;;;;;;;1.98;1.40;;;7.80;99.90;;;;;;5088400;27;20075;-80
2022/01/23 12:26:44;;;;;;;2.10;1.38;;;7.80;99.90;;;;;;5123094;27;20487;-80
2022/01/23 12:29:18;;;;;;;2.20;1.30;;;7.80;99.90;;;;;;5121923;27;20122;-80
2022/01/23 12:31:45;;;;;;;4.50;1.50;;;7.70;99.90;;;;;;5124410;27;20118;-80
2022/01/23 12:34:12;;;;;;;2.90;1.30;;;7.70;99.90;;;;;;5124471;27;20114;-80
2022/01/23 12:36:40;;;;;;;3.10;1.90;;;7.70;99.90;;;;;;5123992;27;20031;-80
2022/01/23 12:39:09;;;;;;;2.10;1.30;;;7.70;99.90;;;;;;5121610;27;20027;-80
2022/01/23 12:41:36;;;;;;;2.38;1.20;;;7.70;99.90;;;;;;5121282;27;20058;-79
2022/01/23 12:44:29;;;;;;;2.83;1.20;;;7.80;99.90;;;;;;5118344;27;20475;-80
2022/01/23 12:46:59;;;;;;;2.53;1.20;;;7.80;99.90;;;;;;5100994;27;20424;-80
2022/01/23 12:49:26;;;;;;;1.70;1.27;;;7.80;99.90;;;;;;5119796;27;20040;-80
2022/01/23 12:52:14;;;;;;;2.63;1.20;;;7.90;99.90;;;;;;5121459;27;20039;-80
2022/01/23 12:54:53;;;;;;;2.83;1.25;;;7.80;99.90;;;;;;5115994;27;20055;-80
2022/01/23 12:57:37;;;;;;;4.88;1.33;;;7.80;99.90;;;;;;5119935;27;20074;-80
2022/01/23 13:00:09;;;;;;;3.22;1.60;;;7.80;99.90;;;;;;5118197;27;20053;-80
2022/01/23 13:02:53;;;;;;;3.22;1.40;;;7.80;99.90;;;;;;5119077;27;20035;-80
2022/01/23 13:05:19;;;;;;;3.35;1.30;;;7.70;99.90;;;;;;5120116;27;20039;-80
2022/01/23 13:08:05;;;;;;;2.80;1.67;;;7.80;99.90;;;;;;5121012;27;20024;-80
2022/01/23 13:13:36;;;;;;;4.10;1.75;;;7.80;99.90;;;;;;5120559;27;20504;-80
2022/01/23 13:19:13;;;;;;;4.47;2.05;;;7.70;99.90;;;;;;5120115;27;20035;-80
2022/01/23 13:30:25;;;;;;;3.28;2.10;;;7.70;99.90;;;;;;5071118;28;20040;-80
2022/01/23 13:32:58;;;;;;;5.45;2.22;;;7.70;99.90;;;;;;5084556;28;20060;-80
2022/01/23 13:35:29;;;;;;;4.20;2.33;;;7.70;99.90;;;;;;5095563;28;20035;-80
2022/01/23 13:37:59;;;;;;;5.68;2.63;;;7.70;99.90;;;;;;5100108;28;20391;-80
2022/01/23 13:40:37;;;;;;;4.50;2.75;;;7.60;99.90;;;;;;5067335;28;20032;-80
2022/01/23 13:51:31;;;;;;;5.18;3.10;;;7.70;99.90;;;;;;5099345;28;20052;-80
2022/01/23 14:04:46;;;;;;;7.13;3.13;;;7.60;99.90;;;;;;5099877;28;20036;-80
2022/01/23 14:07:16;;;;;;;6.32;3.08;;;7.60;99.90;;;;;;5101324;28;20788;-80
2022/01/23 14:09:44;;;;;;;6.07;3.35;;;7.60;99.90;;;;;;5083317;28;20047;-80
2022/01/23 14:12:15;;;;;;;5.72;3.80;;;7.60;99.90;;;;;;5080603;28;20035;-80
2022/01/23 14:15:05;;;;;;;6.70;3.60;;;7.60;99.90;;;;;;5096128;28;20047;-80
2022/01/23 14:17:36;;;;;;;6.95;3.25;;;7.60;99.90;;;;;;5101195;28;20031;-80
2022/01/23 14:20:17;;;;;;;6.57;3.50;;;7.50;99.90;;;;;;5078383;28;20058;-80
2022/01/23 14:22:45;;;;;;;7.22;3.35;;;7.50;99.90;;;;;;5102475;28;20047;-80
2022/01/23 14:25:12;;;;;;;4.50;3.40;;;7.50;99.90;;;;;;5100527;28;20122;-80
2022/01/23 14:27:40;;;;;;;6.57;3.50;;;7.50;99.90;;;;;;5110542;27;20502;-80
2022/01/23 14:30:09;;;;;;;5.07;3.10;;;7.50;99.90;;;;;;5121106;27;20042;-80
2022/01/23 14:32:42;;;;;;;6.60;3.30;;;7.50;99.90;;;;;;5127968;27;20046;-80
2022/01/23 14:35:11;;;;;;;7.15;3.50;;;7.50;99.90;;;;;;5117036;27;20072;-79
2022/01/23 14:37:37;;;;;;;7.18;3.25;;;7.50;99.90;;;;;;5113229;27;20739;-80
2022/01/23 14:40:10;;;;;;;6.60;3.40;;;7.50;99.90;;;;;;5128381;27;20061;-80
2022/01/23 14:42:36;;;;;;;4.85;3.03;;;7.40;99.90;;;;;;5126376;27;20097;-79
2022/01/23 14:45:09;;;;;;;7.40;4.03;;;7.40;99.90;;;;;;5105765;28;20068;-82
2022/01/23 14:47:39;;;;;;;8.32;3.75;;;7.40;99.90;;;;;;5109153;27;20372;-82
2022/01/23 14:50:12;;;;;;;6.13;2.92;;;7.40;99.90;;;;;;5122141;27;20065;-82
2022/01/23 14:52:40;;;;;;;5.55;3.13;;;7.40;99.90;;;;;;5107518;27;20073;-82
2022/01/23 14:55:08;;;;;;;5.85;3.42;;;7.40;99.90;;;;;;5124894;27;20031;-82
2022/01/23 14:57:35;;;;;;;6.72;2.88;;;7.40;99.90;;;;;;5106733;27;20034;-80
2022/01/23 15:00:04;;;;;;;4.97;2.58;;;7.40;99.90;;;;;;5103019;27;20501;-81
2022/01/23 15:02:29;;;;;;;6.50;2.85;;;7.50;99.90;;;;;;5123232;27;20522;-81
2022/01/23 15:04:57;;;;;;;4.53;2.63;;;7.40;99.90;;;;;;5123656;27;20069;-82
2022/01/23 15:07:22;;;;;;;4.90;2.95;;;7.40;99.90;;;;;;5123682;27;20042;-79
2022/01/23 15:09:50;;;;;;;5.65;3.10;;;7.30;99.90;;;;;;5126610;27;20031;-78
2022/01/23 15:12:17;;;;;;;6.22;3.10;;;7.30;99.90;;;;;;5124250;27;20030;-80
2022/01/23 15:14:43;;;;;;;5.22;2.78;;;7.30;99.90;;;;;;5127295;27;20811;-80
2022/01/23 15:17:09;;;;;;;3.17;2.00;;;7.30;99.90;;;;;;5126526;27;20134;-80
2022/01/23 15:19:35;;;;;;;3.55;2.10;;;7.30;99.90;;;;;;5121730;27;20062;-80
2022/01/23 15:22:01;;;;;;;3.92;2.38;;;7.30;99.90;;;;;;5147792;27;20061;-80
2022/01/23 15:24:28;;;;;;;4.00;2.33;;;7.20;99.90;;;;;;5090559;27;20047;-80
2022/01/23 15:26:54;;;;;;;5.97;2.60;;;7.20;99.90;;;;;;5129584;27;20045;-80
2022/01/23 15:29:19;;;;;;;4.85;2.40;;;7.30;99.90;;;;;;5124429;27;20051;-81
2022/01/23 15:31:47;;;;;;;5.25;2.65;;;7.40;99.90;;;;;;5122300;27;20035;-80
2022/01/23 15:34:15;;;;;;;4.75;2.58;;;7.20;99.90;;;;;;5109881;27;20073;-79
2022/01/23 15:36:42;;;;;;;5.68;2.70;;;7.20;99.90;;;;;;5132571;27;20034;-80
2022/01/23 15:39:07;;;;;;;5.28;2.67;;;7.60;99.90;;;;;;5121569;27;20110;-80
2022/01/23 15:41:34;;;;;;;4.47;2.47;;;7.20;99.90;;;;;;5122014;27;20035;-79
2022/01/23 15:43:59;;;;;;;5.82;2.60;;;7.20;99.90;;;;;;5107859;27;20030;-80
2022/01/23 15:46:25;;;;;;;4.28;2.40;;;7.20;99.90;;;;;;5109552;27;20039;-80
2022/01/23 15:48:51;;;;;;;7.57;3.13;;;7.20;99.90;;;;;;5124739;27;20122;-81
2022/01/23 15:51:17;;;;;;;4.82;2.70;;;7.20;99.90;;;;;;5099034;27;20167;-81
2022/01/23 15:53:43;;;;;;;6.07;3.00;;;7.20;99.90;;;;;;5124017;27;20088;-81
2022/01/23 15:56:08;;;;;;;5.35;3.15;;;7.20;99.90;;;;;;5126105;27;20283;-81
2022/01/23 15:58:34;;;;;;;4.97;3.13;;;7.10;99.90;;;;;;5107554;27;20444;-82
2022/01/23 16:01:00;;;;;;;5.65;3.13;;;7.10;99.90;;;;;;5118395;27;20042;-81
2022/01/23 16:03:27;;;;;;;6.82;3.38;;;7.00;99.90;;;;;;5131876;27;20074;-81
2022/01/23 16:05:54;;;;;;;6.18;3.05;;;7.00;99.90;;;;;;5120969;27;20114;-82
2022/01/23 16:08:20;;;;;;;5.85;3.40;;;7.00;99.90;;;;;;5123873;27;20054;-80
2022/01/23 16:10:46;;;;;;;6.15;3.70;;;7.00;99.90;;;;;;5109033;27;20031;-80
2022/01/23 16:13:12;;;;;;;7.03;3.55;;;6.90;99.90;;;;;;5125635;27;20045;-80
2022/01/23 16:15:37;;;;;;;5.40;3.22;;;7.00;99.90;;;;;;5117660;27;20043;-83
2022/01/23 16:18:03;;;;;;;7.60;3.30;;;7.00;99.90;;;;;;5103166;27;20039;-81
2022/01/23 16:20:29;;;;;;;5.93;3.22;;;7.10;99.90;;;;;;5128381;27;20038;-81
2022/01/23 16:22:55;;;;;;;6.90;3.97;;;7.10;99.90;;;;;;5122644;27;21668;-81
2022/01/23 16:25:22;;;;;;;8.98;3.45;;;7.00;99.90;;;;;;5120632;27;20041;-80
2022/01/23 16:27:49;;;;;;;5.85;3.65;;;6.90;99.90;;;;;;5133388;27;20178;-81
2022/01/23 16:30:16;;;;;;;5.85;3.72;;;6.90;99.90;;;;;;5120550;27;20047;-82
2022/01/23 16:32:42;;;;;;;6.85;3.53;;;6.90;99.90;;;;;;5111448;27;20038;-83
2022/01/23 16:35:09;;;;;;;7.15;4.05;;;6.90;99.90;;;;;;5126101;27;20099;-84
2022/01/23 16:37:35;;;;;;;8.57;3.72;;;6.90;99.90;;;;;;5118684;27;20103;-84
2022/01/23 16:40:02;;;;;;;6.13;3.90;;;6.90;99.90;;;;;;5123607;27;20047;-84
2022/01/23 16:42:28;;;;;;;6.13;3.83;;;6.80;99.90;;;;;;5120891;27;20057;-83